sensor_id;sensor_type;location;lat;lon;timestamp;temperature;humidity
29431;DHT22;16404;49.902;10.074;2023-04-03T00:02:09;6.60;58.10
29431;DHT22;16404;49.902;10.074;2023-04-03T00:04:54;6.60;58.10
29431;DHT22;16404;49.902;10.074;2023-04-03T00:07:38;6.60;58.10
29431;DHT22;16404;49.902;10.074;2023-04-03T00:10:23;6.60;58.10
29431;DHT22;16404;49.902;10.074;2023-04-03T00:13:08;6.70;58.20
29431;DHT22;16404;49.902;10.074;2023-04-03T00:15:53;6.70;58.20
29431;DHT22;16404;49.902;10.074;2023-04-03T00:18:39;6.80;58.20
29431;DHT22;16404;49.902;10.074;2023-04-03T00:21:24;6.70;58.00
29431;DHT22;16404;49.902;10.074;2023-04-03T00:24:08;6.80;58.20
29431;DHT22;16404;49.902;10.074;2023-04-03T00:26:53;6.80;58.20
29431;DHT22;16404;49.902;10.074;2023-04-03T00:29:37;6.80;58.20
29431;DHT22;16404;49.902;10.074;2023-04-03T00:32:22;6.90;58.10
29431;DHT22;16404;49.902;10.074;2023-04-03T00:35:07;6.80;58.10
29431;DHT22;16404;49.902;10.074;2023-04-03T00:37:52;6.80;58.20
29431;DHT22;16404;49.902;10.074;2023-04-03T00:40:41;6.80;58.20
29431;DHT22;16404;49.902;10.074;2023-04-03T00:43:26;6.80;58.00
29431;DHT22;16404;49.902;10.074;2023-04-03T00:46:11;6.90;58.10
29431;DHT22;16404;49.902;10.074;2023-04-03T00:48:56;6.80;58.30
29431;DHT22;16404;49.902;10.074;2023-04-03T00:51:40;6.80;58.30
29431;DHT22;16404;49.902;10.074;2023-04-03T00:54:26;6.90;58.30
29431;DHT22;16404;49.902;10.074;2023-04-03T00:57:11;6.90;58.30
29431;DHT22;16404;49.902;10.074;2023-04-03T00:59:57;6.90;58.30
29431;DHT22;16404;49.902;10.074;2023-04-03T01:02:43;7.00;58.20
29431;DHT22;16404;49.902;10.074;2023-04-03T01:05:30;7.00;58.10
29431;DHT22;16404;49.902;10.074;2023-04-03T01:08:16;6.90;58.40
29431;DHT22;16404;49.902;10.074;2023-04-03T01:11:00;6.90;58.70
29431;DHT22;16404;49.902;10.074;2023-04-03T01:13:45;7.00;58.80
29431;DHT22;16404;49.902;10.074;2023-04-03T01:16:30;6.90;58.70
29431;DHT22;16404;49.902;10.074;2023-04-03T01:19:17;7.00;58.70
29431;DHT22;16404;49.902;10.074;2023-04-03T01:22:21;7.00;58.70
29431;DHT22;16404;49.902;10.074;2023-04-03T01:25:10;6.90;58.60
29431;DHT22;16404;49.902;10.074;2023-04-03T01:27:54;7.00;58.60
29431;DHT22;16404;49.902;10.074;2023-04-03T01:30:41;7.00;58.60
29431;DHT22;16404;49.902;10.074;2023-04-03T01:33:27;7.00;58.50
29431;DHT22;16404;49.902;10.074;2023-04-03T01:36:21;7.00;58.50
29431;DHT22;16404;49.902;10.074;2023-04-03T01:39:07;7.00;58.70
29431;DHT22;16404;49.902;10.074;2023-04-03T01:41:51;7.00;58.70
29431;DHT22;16404;49.902;10.074;2023-04-03T01:44:43;7.10;58.70
29431;DHT22;16404;49.902;10.074;2023-04-03T01:47:27;7.10;58.50
29431;DHT22;16404;49.902;10.074;2023-04-03T01:50:12;7.10;58.60
29431;DHT22;16404;49.902;10.074;2023-04-03T01:52:56;7.10;58.70
29431;DHT22;16404;49.902;10.074;2023-04-03T01:55:41;7.10;58.90
29431;DHT22;16404;49.902;10.074;2023-04-03T01:58:25;7.10;59.10
29431;DHT22;16404;49.902;10.074;2023-04-03T02:01:11;7.10;59.20
29431;DHT22;16404;49.902;10.074;2023-04-03T02:03:56;7.10;59.20
29431;DHT22;16404;49.902;10.074;2023-04-03T02:06:40;7.10;59.20
29431;DHT22;16404;49.902;10.074;2023-04-03T02:09:25;7.20;59.10
29431;DHT22;16404;49.902;10.074;2023-04-03T02:12:11;7.20;59.10
29431;DHT22;16404;49.902;10.074;2023-04-03T02:14:55;7.20;59.30
29431;DHT22;16404;49.902;10.074;2023-04-03T02:17:40;7.20;59.50
29431;DHT22;16404;49.902;10.074;2023-04-03T02:20:25;7.20;59.60
29431;DHT22;16404;49.902;10.074;2023-04-03T02:23:10;7.20;59.60
29431;DHT22;16404;49.902;10.074;2023-04-03T02:26:03;7.30;59.50
29431;DHT22;16404;49.902;10.074;2023-04-03T02:28:48;7.20;59.50
29431;DHT22;16404;49.902;10.074;2023-04-03T02:31:32;7.20;59.60
29431;DHT22;16404;49.902;10.074;2023-04-03T02:34:19;7.20;59.70
29431;DHT22;16404;49.902;10.074;2023-04-03T02:37:05;7.20;59.70
29431;DHT22;16404;49.902;10.074;2023-04-03T02:39:49;7.20;59.70
29431;DHT22;16404;49.902;10.074;2023-04-03T02:42:34;7.20;59.80
29431;DHT22;16404;49.902;10.074;2023-04-03T02:45:20;7.30;59.90
29431;DHT22;16404;49.902;10.074;2023-04-03T02:48:06;7.30;60.00
29431;DHT22;16404;49.902;10.074;2023-04-03T02:50:50;7.30;59.90
29431;DHT22;16404;49.902;10.074;2023-04-03T02:53:35;7.30;59.90
29431;DHT22;16404;49.902;10.074;2023-04-03T02:56:26;7.20;60.00
29431;DHT22;16404;49.902;10.074;2023-04-03T02:59:11;7.20;60.20
29431;DHT22;16404;49.902;10.074;2023-04-03T03:01:57;7.30;60.00
29431;DHT22;16404;49.902;10.074;2023-04-03T03:04:42;7.30;60.00
29431;DHT22;16404;49.902;10.074;2023-04-03T03:07:26;7.30;60.30
29431;DHT22;16404;49.902;10.074;2023-04-03T03:10:11;7.30;60.30
29431;DHT22;16404;49.902;10.074;2023-04-03T03:12:56;7.30;60.40
29431;DHT22;16404;49.902;10.074;2023-04-03T03:15:41;7.30;60.40
29431;DHT22;16404;49.902;10.074;2023-04-03T03:18:26;7.20;60.70
29431;DHT22;16404;49.902;10.074;2023-04-03T03:21:10;7.20;61.00
29431;DHT22;16404;49.902;10.074;2023-04-03T03:23:55;7.20;60.90
29431;DHT22;16404;49.902;10.074;2023-04-03T03:26:40;7.20;60.70
29431;DHT22;16404;49.902;10.074;2023-04-03T03:29:24;7.20;60.90
29431;DHT22;16404;49.902;10.074;2023-04-03T03:32:09;7.20;60.90
29431;DHT22;16404;49.902;10.074;2023-04-03T03:34:54;7.20;60.90
29431;DHT22;16404;49.902;10.074;2023-04-03T03:37:38;7.20;60.80
29431;DHT22;16404;49.902;10.074;2023-04-03T03:40:23;7.20;61.10
29431;DHT22;16404;49.902;10.074;2023-04-03T03:43:08;7.10;61.20
29431;DHT22;16404;49.902;10.074;2023-04-03T03:45:53;7.10;61.40
29431;DHT22;16404;49.902;10.074;2023-04-03T03:48:38;7.10;61.30
29431;DHT22;16404;49.902;10.074;2023-04-03T03:51:22;7.10;61.20
29431;DHT22;16404;49.902;10.074;2023-04-03T03:54:07;7.10;61.10
29431;DHT22;16404;49.902;10.074;2023-04-03T03:56:52;7.10;61.10
29431;DHT22;16404;49.902;10.074;2023-04-03T03:59:36;7.10;61.00
29431;DHT22;16404;49.902;10.074;2023-04-03T04:02:21;7.10;60.80
29431;DHT22;16404;49.902;10.074;2023-04-03T04:05:06;7.00;61.00
29431;DHT22;16404;49.902;10.074;2023-04-03T04:07:50;7.00;61.00
29431;DHT22;16404;49.902;10.074;2023-04-03T04:10:37;7.00;60.90
29431;DHT22;16404;49.902;10.074;2023-04-03T04:13:22;7.00;60.80
29431;DHT22;16404;49.902;10.074;2023-04-03T04:16:08;7.00;60.90
29431;DHT22;16404;49.902;10.074;2023-04-03T04:18:52;7.00;61.00
29431;DHT22;16404;49.902;10.074;2023-04-03T04:21:38;7.00;61.10
29431;DHT22;16404;49.902;10.074;2023-04-03T04:24:24;6.90;60.80
29431;DHT22;16404;49.902;10.074;2023-04-03T04:27:11;6.90;61.00
29431;DHT22;16404;49.902;10.074;2023-04-03T04:29:55;6.80;61.00
29431;DHT22;16404;49.902;10.074;2023-04-03T04:32:40;6.80;60.90
29431;DHT22;16404;49.902;10.074;2023-04-03T04:35:25;6.80;61.60
29431;DHT22;16404;49.902;10.074;2023-04-03T04:38:10;6.80;60.80
29431;DHT22;16404;49.902;10.074;2023-04-03T04:40:55;6.80;60.70
29431;DHT22;16404;49.902;10.074;2023-04-03T04:43:41;6.70;60.70
29431;DHT22;16404;49.902;10.074;2023-04-03T04:46:27;6.70;60.50
29431;DHT22;16404;49.902;10.074;2023-04-03T04:49:16;6.70;60.30
29431;DHT22;16404;49.902;10.074;2023-04-03T04:52:00;6.70;60.30
29431;DHT22;16404;49.902;10.074;2023-04-03T04:54:48;6.60;60.20
29431;DHT22;16404;49.902;10.074;2023-04-03T04:57:33;6.60;60.20
29431;DHT22;16404;49.902;10.074;2023-04-03T05:00:19;6.50;60.10
29431;DHT22;16404;49.902;10.074;2023-04-03T05:03:04;6.50;60.10
29431;DHT22;16404;49.902;10.074;2023-04-03T05:05:49;6.40;60.10
29431;DHT22;16404;49.902;10.074;2023-04-03T05:08:33;6.30;60.20
29431;DHT22;16404;49.902;10.074;2023-04-03T05:11:18;6.30;60.20
29431;DHT22;16404;49.902;10.074;2023-04-03T05:14:07;6.20;60.00
29431;DHT22;16404;49.902;10.074;2023-04-03T05:16:53;6.20;60.00
29431;DHT22;16404;49.902;10.074;2023-04-03T05:19:39;6.10;60.00
29431;DHT22;16404;49.902;10.074;2023-04-03T05:22:26;6.10;60.10
29431;DHT22;16404;49.902;10.074;2023-04-03T05:25:14;6.10;60.10
29431;DHT22;16404;49.902;10.074;2023-04-03T05:28:01;6.20;60.20
29431;DHT22;16404;49.902;10.074;2023-04-03T05:30:56;6.10;60.30
29431;DHT22;16404;49.902;10.074;2023-04-03T05:33:42;6.10;60.60
29431;DHT22;16404;49.902;10.074;2023-04-03T05:36:31;6.10;61.10
29431;DHT22;16404;49.902;10.074;2023-04-03T05:39:20;6.20;60.40
29431;DHT22;16404;49.902;10.074;2023-04-03T05:42:07;6.10;60.50
29431;DHT22;16404;49.902;10.074;2023-04-03T05:44:52;6.20;60.70
29431;DHT22;16404;49.902;10.074;2023-04-03T05:47:36;6.20;60.60
29431;DHT22;16404;49.902;10.074;2023-04-03T05:50:21;6.20;60.60
29431;DHT22;16404;49.902;10.074;2023-04-03T05:53:22;6.20;60.80
29431;DHT22;16404;49.902;10.074;2023-04-03T05:56:09;6.20;61.70
29431;DHT22;16404;49.902;10.074;2023-04-03T05:58:57;6.20;60.90
29431;DHT22;16404;49.902;10.074;2023-04-03T06:01:43;6.20;61.20
29431;DHT22;16404;49.902;10.074;2023-04-03T06:04:28;6.20;61.40
29431;DHT22;16404;49.902;10.074;2023-04-03T06:07:18;6.30;61.30
29431;DHT22;16404;49.902;10.074;2023-04-03T06:10:04;6.30;61.10
29431;DHT22;16404;49.902;10.074;2023-04-03T06:12:48;6.40;61.20
29431;DHT22;16404;49.902;10.074;2023-04-03T06:15:33;6.40;61.10
29431;DHT22;16404;49.902;10.074;2023-04-03T06:18:17;6.50;61.00
29431;DHT22;16404;49.902;10.074;2023-04-03T06:21:01;6.60;60.90
29431;DHT22;16404;49.902;10.074;2023-04-03T06:23:46;6.60;60.60
29431;DHT22;16404;49.902;10.074;2023-04-03T06:26:31;6.70;60.80
29431;DHT22;16404;49.902;10.074;2023-04-03T06:29:17;6.70;60.70
29431;DHT22;16404;49.902;10.074;2023-04-03T06:32:02;6.60;60.60
29431;DHT22;16404;49.902;10.074;2023-04-03T06:34:46;6.80;60.80
29431;DHT22;16404;49.902;10.074;2023-04-03T06:37:31;6.80;60.50
29431;DHT22;16404;49.902;10.074;2023-04-03T06:40:21;6.80;60.50
29431;DHT22;16404;49.902;10.074;2023-04-03T06:43:06;6.90;60.50
29431;DHT22;16404;49.902;10.074;2023-04-03T06:45:51;7.10;60.40
29431;DHT22;16404;49.902;10.074;2023-04-03T06:48:36;7.20;60.00
29431;DHT22;16404;49.902;10.074;2023-04-03T06:51:26;7.30;59.80
29431;DHT22;16404;49.902;10.074;2023-04-03T06:54:11;7.40;59.30
29431;DHT22;16404;49.902;10.074;2023-04-03T06:56:56;7.50;59.10
29431;DHT22;16404;49.902;10.074;2023-04-03T06:59:40;7.50;59.20
29431;DHT22;16404;49.902;10.074;2023-04-03T07:02:25;7.60;59.70
29431;DHT22;16404;49.902;10.074;2023-04-03T07:05:10;7.70;59.00
29431;DHT22;16404;49.902;10.074;2023-04-03T07:07:56;7.90;58.90
29431;DHT22;16404;49.902;10.074;2023-04-03T07:10:40;8.00;58.60
29431;DHT22;16404;49.902;10.074;2023-04-03T07:13:25;8.00;58.40
29431;DHT22;16404;49.902;10.074;2023-04-03T07:16:10;8.00;57.90
29431;DHT22;16404;49.902;10.074;2023-04-03T07:18:55;8.20;58.00
29431;DHT22;16404;49.902;10.074;2023-04-03T07:21:39;8.20;57.40
29431;DHT22;16404;49.902;10.074;2023-04-03T07:24:26;8.20;57.30
29431;DHT22;16404;49.902;10.074;2023-04-03T07:27:10;8.30;57.20
29431;DHT22;16404;49.902;10.074;2023-04-03T07:29:56;8.30;56.90
29431;DHT22;16404;49.902;10.074;2023-04-03T07:32:41;8.30;56.70
29431;DHT22;16404;49.902;10.074;2023-04-03T07:35:26;8.40;56.80
29431;DHT22;16404;49.902;10.074;2023-04-03T07:38:11;8.50;56.60
29431;DHT22;16404;49.902;10.074;2023-04-03T07:40:55;8.60;56.70
29431;DHT22;16404;49.902;10.074;2023-04-03T07:43:40;8.70;56.40
29431;DHT22;16404;49.902;10.074;2023-04-03T07:46:25;8.80;56.30
29431;DHT22;16404;49.902;10.074;2023-04-03T07:49:10;9.00;56.50
29431;DHT22;16404;49.902;10.074;2023-04-03T07:51:54;9.00;55.80
29431;DHT22;16404;49.902;10.074;2023-04-03T07:54:39;9.10;55.50
29431;DHT22;16404;49.902;10.074;2023-04-03T07:57:23;9.10;55.20
29431;DHT22;16404;49.902;10.074;2023-04-03T08:00:09;9.10;55.10
29431;DHT22;16404;49.902;10.074;2023-04-03T08:02:56;9.20;54.80
29431;DHT22;16404;49.902;10.074;2023-04-03T08:05:42;9.30;54.70
29431;DHT22;16404;49.902;10.074;2023-04-03T08:08:27;9.40;54.30
29431;DHT22;16404;49.902;10.074;2023-04-03T08:11:13;9.50;53.70
29431;DHT22;16404;49.902;10.074;2023-04-03T08:13:58;9.60;53.50
29431;DHT22;16404;49.902;10.074;2023-04-03T08:16:45;9.70;53.40
29431;DHT22;16404;49.902;10.074;2023-04-03T08:19:29;9.80;53.50
29431;DHT22;16404;49.902;10.074;2023-04-03T08:22:14;9.90;53.30
29431;DHT22;16404;49.902;10.074;2023-04-03T08:25:00;10.00;53.10
29431;DHT22;16404;49.902;10.074;2023-04-03T08:27:45;10.00;52.90
29431;DHT22;16404;49.902;10.074;2023-04-03T08:30:30;10.20;52.50
29431;DHT22;16404;49.902;10.074;2023-04-03T08:33:15;10.20;52.10
29431;DHT22;16404;49.902;10.074;2023-04-03T08:35:59;10.30;51.70
29431;DHT22;16404;49.902;10.074;2023-04-03T08:38:44;10.30;51.30
29431;DHT22;16404;49.902;10.074;2023-04-03T08:41:39;10.30;50.80
29431;DHT22;16404;49.902;10.074;2023-04-03T08:44:52;10.20;50.60
29431;DHT22;16404;49.902;10.074;2023-04-03T08:47:45;10.20;50.70
29431;DHT22;16404;49.902;10.074;2023-04-03T08:50:42;10.20;50.70
29431;DHT22;16404;49.902;10.074;2023-04-03T08:53:31;10.20;50.90
29431;DHT22;16404;49.902;10.074;2023-04-03T08:56:18;10.40;51.00
29431;DHT22;16404;49.902;10.074;2023-04-03T08:59:12;10.50;51.00
29431;DHT22;16404;49.902;10.074;2023-04-03T09:02:00;10.60;50.30
29431;DHT22;16404;49.902;10.074;2023-04-03T09:04:50;10.70;50.00
29431;DHT22;16404;49.902;10.074;2023-04-03T09:07:42;10.80;49.90
29431;DHT22;16404;49.902;10.074;2023-04-03T09:10:30;10.90;49.40
29431;DHT22;16404;49.902;10.074;2023-04-03T09:17:35;10.80;48.20
29431;DHT22;16404;49.902;10.074;2023-04-03T09:20:35;10.60;48.50
29431;DHT22;16404;49.902;10.074;2023-04-03T09:26:24;10.50;48.20
29431;DHT22;16404;49.902;10.074;2023-04-03T09:29:19;10.50;47.90
29431;DHT22;16404;49.902;10.074;2023-04-03T09:32:36;10.50;48.00
29431;DHT22;16404;49.902;10.074;2023-04-03T09:35:34;10.60;47.30
29431;DHT22;16404;49.902;10.074;2023-04-03T09:38:21;10.50;46.30
29431;DHT22;16404;49.902;10.074;2023-04-03T09:41:13;10.50;46.30
29431;DHT22;16404;49.902;10.074;2023-04-03T09:43:59;10.60;46.70
29431;DHT22;16404;49.902;10.074;2023-04-03T09:46:43;10.60;46.00
29431;DHT22;16404;49.902;10.074;2023-04-03T09:49:28;10.50;45.90
29431;DHT22;16404;49.902;10.074;2023-04-03T09:52:23;10.50;45.70
29431;DHT22;16404;49.902;10.074;2023-04-03T09:55:16;10.50;45.50
29431;DHT22;16404;49.902;10.074;2023-04-03T09:58:03;10.50;45.50
29431;DHT22;16404;49.902;10.074;2023-04-03T10:00:55;10.60;45.00
29431;DHT22;16404;49.902;10.074;2023-04-03T10:03:39;10.50;44.70
29431;DHT22;16404;49.902;10.074;2023-04-03T10:06:32;10.40;44.70
29431;DHT22;16404;49.902;10.074;2023-04-03T10:09:29;10.40;44.60
29431;DHT22;16404;49.902;10.074;2023-04-03T10:12:20;10.30;44.80
29431;DHT22;16404;49.902;10.074;2023-04-03T10:15:15;10.40;45.10
29431;DHT22;16404;49.902;10.074;2023-04-03T10:18:02;10.40;44.60
29431;DHT22;16404;49.902;10.074;2023-04-03T10:20:52;10.40;44.70
29431;DHT22;16404;49.902;10.074;2023-04-03T10:23:45;10.30;44.50
29431;DHT22;16404;49.902;10.074;2023-04-03T10:26:57;10.30;44.30
29431;DHT22;16404;49.902;10.074;2023-04-03T10:29:53;10.20;44.40
29431;DHT22;16404;49.902;10.074;2023-04-03T10:36:25;10.10;44.10
29431;DHT22;16404;49.902;10.074;2023-04-03T10:45:24;9.90;42.90
29431;DHT22;16404;49.902;10.074;2023-04-03T10:51:44;9.70;42.60
29431;DHT22;16404;49.902;10.074;2023-04-03T10:54:36;9.80;42.90
29431;DHT22;16404;49.902;10.074;2023-04-03T10:57:24;9.80;42.90
29431;DHT22;16404;49.902;10.074;2023-04-03T11:00:21;9.90;42.90
29431;DHT22;16404;49.902;10.074;2023-04-03T11:03:13;9.90;42.80
29431;DHT22;16404;49.902;10.074;2023-04-03T11:06:02;9.90;42.70
29431;DHT22;16404;49.902;10.074;2023-04-03T11:09:10;9.90;42.20
29431;DHT22;16404;49.902;10.074;2023-04-03T11:12:48;9.80;41.80
29431;DHT22;16404;49.902;10.074;2023-04-03T11:15:43;9.80;42.20
29431;DHT22;16404;49.902;10.074;2023-04-03T11:18:37;9.80;42.10
29431;DHT22;16404;49.902;10.074;2023-04-03T11:21:54;9.80;42.50
29431;DHT22;16404;49.902;10.074;2023-04-03T11:24:43;9.90;43.10
29431;DHT22;16404;49.902;10.074;2023-04-03T11:27:38;10.00;42.60
29431;DHT22;16404;49.902;10.074;2023-04-03T11:30:30;10.10;42.60
29431;DHT22;16404;49.902;10.074;2023-04-03T11:36:29;10.30;43.10
29431;DHT22;16404;49.902;10.074;2023-04-03T11:42:25;10.30;42.70
29431;DHT22;16404;49.902;10.074;2023-04-03T11:51:46;10.20;42.00
29431;DHT22;16404;49.902;10.074;2023-04-03T11:54:35;10.20;41.80
29431;DHT22;16404;49.902;10.074;2023-04-03T11:57:44;10.10;41.20
29431;DHT22;16404;49.902;10.074;2023-04-03T12:03:32;10.00;41.30
29431;DHT22;16404;49.902;10.074;2023-04-03T12:09:02;10.00;41.50
29431;DHT22;16404;49.902;10.074;2023-04-03T12:11:47;10.00;41.20
29431;DHT22;16404;49.902;10.074;2023-04-03T12:14:32;9.90;41.00
29431;DHT22;16404;49.902;10.074;2023-04-03T12:17:23;9.90;40.80
29431;DHT22;16404;49.902;10.074;2023-04-03T12:23:33;9.70;41.60
29431;DHT22;16404;49.902;10.074;2023-04-03T12:26:22;9.70;41.70
29431;DHT22;16404;49.902;10.074;2023-04-03T12:32:43;9.80;42.00
29431;DHT22;16404;49.902;10.074;2023-04-03T12:35:43;9.80;41.80
29431;DHT22;16404;49.902;10.074;2023-04-03T12:39:01;9.80;41.70
29431;DHT22;16404;49.902;10.074;2023-04-03T12:41:57;9.90;41.70
29431;DHT22;16404;49.902;10.074;2023-04-03T12:47:49;9.80;40.90
29431;DHT22;16404;49.902;10.074;2023-04-03T12:50:34;9.80;40.70
29431;DHT22;16404;49.902;10.074;2023-04-03T12:53:22;9.80;40.70
29431;DHT22;16404;49.902;10.074;2023-04-03T12:56:27;9.80;41.00
29431;DHT22;16404;49.902;10.074;2023-04-03T12:59:23;9.80;41.10
29431;DHT22;16404;49.902;10.074;2023-04-03T13:02:29;9.80;41.00
29431;DHT22;16404;49.902;10.074;2023-04-03T13:05:17;9.90;41.20
29431;DHT22;16404;49.902;10.074;2023-04-03T13:08:05;10.00;41.20
29431;DHT22;16404;49.902;10.074;2023-04-03T13:11:04;10.10;40.90
29431;DHT22;16404;49.902;10.074;2023-04-03T13:14:00;10.00;40.90
29431;DHT22;16404;49.902;10.074;2023-04-03T13:17:13;10.10;41.10
29431;DHT22;16404;49.902;10.074;2023-04-03T13:20:21;10.10;41.10
29431;DHT22;16404;49.902;10.074;2023-04-03T13:23:08;10.10;41.00
29431;DHT22;16404;49.902;10.074;2023-04-03T13:25:53;10.00;40.80
29431;DHT22;16404;49.902;10.074;2023-04-03T13:28:39;10.00;40.70
29431;DHT22;16404;49.902;10.074;2023-04-03T13:31:30;10.00;40.80
29431;DHT22;16404;49.902;10.074;2023-04-03T13:34:20;10.10;41.10
29431;DHT22;16404;49.902;10.074;2023-04-03T13:37:06;10.10;41.00
29431;DHT22;16404;49.902;10.074;2023-04-03T13:40:09;10.10;40.50
29431;DHT22;16404;49.902;10.074;2023-04-03T13:43:04;10.00;40.10
29431;DHT22;16404;49.902;10.074;2023-04-03T13:46:20;10.10;40.30
29431;DHT22;16404;49.902;10.074;2023-04-03T13:52:30;10.10;41.10
29431;DHT22;16404;49.902;10.074;2023-04-03T13:55:25;10.20;41.00
29431;DHT22;16404;49.902;10.074;2023-04-03T14:01:19;10.20;41.00
29431;DHT22;16404;49.902;10.074;2023-04-03T14:04:14;10.30;41.20
29431;DHT22;16404;49.902;10.074;2023-04-03T14:06:59;10.30;41.30
29431;DHT22;16404;49.902;10.074;2023-04-03T14:09:44;10.40;41.00
29431;DHT22;16404;49.902;10.074;2023-04-03T14:12:36;10.40;40.80
29431;DHT22;16404;49.902;10.074;2023-04-03T14:15:28;10.40;40.70
29431;DHT22;16404;49.902;10.074;2023-04-03T14:18:16;10.40;41.00
29431;DHT22;16404;49.902;10.074;2023-04-03T14:21:01;10.40;40.90
29431;DHT22;16404;49.902;10.074;2023-04-03T14:23:46;10.40;40.20
29431;DHT22;16404;49.902;10.074;2023-04-03T14:26:30;10.40;39.90
29431;DHT22;16404;49.902;10.074;2023-04-03T14:29:15;10.50;40.10
29431;DHT22;16404;49.902;10.074;2023-04-03T14:32:00;10.50;40.30
29431;DHT22;16404;49.902;10.074;2023-04-03T14:34:46;10.60;40.50
29431;DHT22;16404;49.902;10.074;2023-04-03T14:37:31;10.60;40.20
29431;DHT22;16404;49.902;10.074;2023-04-03T14:40:19;10.50;39.40
29431;DHT22;16404;49.902;10.074;2023-04-03T14:43:05;10.40;39.30
29431;DHT22;16404;49.902;10.074;2023-04-03T14:45:50;10.40;39.10
29431;DHT22;16404;49.902;10.074;2023-04-03T14:48:35;10.30;38.90
29431;DHT22;16404;49.902;10.074;2023-04-03T14:51:20;10.30;39.20
29431;DHT22;16404;49.902;10.074;2023-04-03T14:54:09;10.30;39.20
29431;DHT22;16404;49.902;10.074;2023-04-03T14:56:57;10.30;39.10
29431;DHT22;16404;49.902;10.074;2023-04-03T14:59:43;10.40;39.50
29431;DHT22;16404;49.902;10.074;2023-04-03T15:02:38;10.40;39.60
29431;DHT22;16404;49.902;10.074;2023-04-03T15:05:22;10.40;39.70
29431;DHT22;16404;49.902;10.074;2023-04-03T15:08:33;10.40;39.30
29431;DHT22;16404;49.902;10.074;2023-04-03T15:11:18;10.40;38.90
29431;DHT22;16404;49.902;10.074;2023-04-03T15:14:03;10.50;39.10
29431;DHT22;16404;49.902;10.074;2023-04-03T15:16:48;10.50;39.10
29431;DHT22;16404;49.902;10.074;2023-04-03T15:19:35;10.50;38.90
29431;DHT22;16404;49.902;10.074;2023-04-03T15:22:20;10.60;38.80
29431;DHT22;16404;49.902;10.074;2023-04-03T15:25:05;10.60;38.60
29431;DHT22;16404;49.902;10.074;2023-04-03T15:27:49;10.60;38.70
29431;DHT22;16404;49.902;10.074;2023-04-03T15:30:36;10.60;39.00
29431;DHT22;16404;49.902;10.074;2023-04-03T15:33:23;10.70;39.20
29431;DHT22;16404;49.902;10.074;2023-04-03T15:36:08;10.70;38.70
29431;DHT22;16404;49.902;10.074;2023-04-03T15:38:53;10.70;38.70
29431;DHT22;16404;49.902;10.074;2023-04-03T15:41:37;10.70;39.00
29431;DHT22;16404;49.902;10.074;2023-04-03T15:44:22;10.80;39.40
29431;DHT22;16404;49.902;10.074;2023-04-03T15:47:07;10.90;39.60
29431;DHT22;16404;49.902;10.074;2023-04-03T15:49:51;10.90;39.20
29431;DHT22;16404;49.902;10.074;2023-04-03T15:52:37;10.80;39.00
29431;DHT22;16404;49.902;10.074;2023-04-03T15:55:23;10.70;38.80
29431;DHT22;16404;49.902;10.074;2023-04-03T15:58:08;10.60;38.90
29431;DHT22;16404;49.902;10.074;2023-04-03T16:00:52;10.60;38.80
29431;DHT22;16404;49.902;10.074;2023-04-03T16:03:37;10.60;39.00
29431;DHT22;16404;49.902;10.074;2023-04-03T16:06:29;10.60;39.30
29431;DHT22;16404;49.902;10.074;2023-04-03T16:09:14;10.60;39.20
29431;DHT22;16404;49.902;10.074;2023-04-03T16:11:59;10.50;39.10
29431;DHT22;16404;49.902;10.074;2023-04-03T16:14:45;10.40;39.40
29431;DHT22;16404;49.902;10.074;2023-04-03T16:17:30;10.40;39.80
29431;DHT22;16404;49.902;10.074;2023-04-03T16:20:16;10.40;40.10
29431;DHT22;16404;49.902;10.074;2023-04-03T16:23:01;10.40;40.30
29431;DHT22;16404;49.902;10.074;2023-04-03T16:25:46;10.50;40.30
29431;DHT22;16404;49.902;10.074;2023-04-03T16:28:30;10.50;40.00
29431;DHT22;16404;49.902;10.074;2023-04-03T16:31:15;10.50;39.80
29431;DHT22;16404;49.902;10.074;2023-04-03T16:34:00;10.50;39.80
29431;DHT22;16404;49.902;10.074;2023-04-03T16:36:46;10.50;39.80
29431;DHT22;16404;49.902;10.074;2023-04-03T16:39:30;10.60;40.00
29431;DHT22;16404;49.902;10.074;2023-04-03T16:42:15;10.60;40.20
29431;DHT22;16404;49.902;10.074;2023-04-03T16:45:00;10.50;39.90
29431;DHT22;16404;49.902;10.074;2023-04-03T16:47:47;10.50;40.10
29431;DHT22;16404;49.902;10.074;2023-04-03T16:50:32;10.50;40.30
29431;DHT22;16404;49.902;10.074;2023-04-03T16:53:16;10.50;40.30
29431;DHT22;16404;49.902;10.074;2023-04-03T16:56:01;10.50;40.20
29431;DHT22;16404;49.902;10.074;2023-04-03T16:58:46;10.30;40.00
29431;DHT22;16404;49.902;10.074;2023-04-03T17:01:30;10.30;40.00
29431;DHT22;16404;49.902;10.074;2023-04-03T17:04:15;10.30;40.10
29431;DHT22;16404;49.902;10.074;2023-04-03T17:07:00;10.20;40.20
29431;DHT22;16404;49.902;10.074;2023-04-03T17:09:50;10.20;40.20
29431;DHT22;16404;49.902;10.074;2023-04-03T17:12:34;10.10;40.00
29431;DHT22;16404;49.902;10.074;2023-04-03T17:15:19;10.00;40.10
29431;DHT22;16404;49.902;10.074;2023-04-03T17:18:04;9.90;40.10
29431;DHT22;16404;49.902;10.074;2023-04-03T17:20:48;9.80;40.30
29431;DHT22;16404;49.902;10.074;2023-04-03T17:23:34;9.80;40.30
29431;DHT22;16404;49.902;10.074;2023-04-03T17:26:19;9.70;40.40
29431;DHT22;16404;49.902;10.074;2023-04-03T17:29:04;9.60;40.50
29431;DHT22;16404;49.902;10.074;2023-04-03T17:31:49;9.50;40.70
29431;DHT22;16404;49.902;10.074;2023-04-03T17:34:34;9.50;40.70
29431;DHT22;16404;49.902;10.074;2023-04-03T17:37:20;9.50;40.90
29431;DHT22;16404;49.902;10.074;2023-04-03T17:40:05;9.50;41.10
29431;DHT22;16404;49.902;10.074;2023-04-03T17:42:50;9.50;41.20
29431;DHT22;16404;49.902;10.074;2023-04-03T17:45:35;9.40;41.20
29431;DHT22;16404;49.902;10.074;2023-04-03T17:48:19;9.40;41.20
29431;DHT22;16404;49.902;10.074;2023-04-03T17:51:10;9.30;41.10
29431;DHT22;16404;49.902;10.074;2023-04-03T17:53:54;9.20;41.20
29431;DHT22;16404;49.902;10.074;2023-04-03T17:56:39;9.10;41.10
29431;DHT22;16404;49.902;10.074;2023-04-03T17:59:31;9.10;41.10
29431;DHT22;16404;49.902;10.074;2023-04-03T18:02:15;9.00;41.20
29431;DHT22;16404;49.902;10.074;2023-04-03T18:05:00;9.00;41.30
29431;DHT22;16404;49.902;10.074;2023-04-03T18:07:44;8.90;41.40
29431;DHT22;16404;49.902;10.074;2023-04-03T18:10:29;8.80;41.50
29431;DHT22;16404;49.902;10.074;2023-04-03T18:13:14;8.70;41.60
29431;DHT22;16404;49.902;10.074;2023-04-03T18:15:58;8.60;41.50
29431;DHT22;16404;49.902;10.074;2023-04-03T18:18:43;8.50;41.50
29431;DHT22;16404;49.902;10.074;2023-04-03T18:21:28;8.40;41.70
29431;DHT22;16404;49.902;10.074;2023-04-03T18:24:16;8.30;41.80
29431;DHT22;16404;49.902;10.074;2023-04-03T18:27:09;8.20;42.00
29431;DHT22;16404;49.902;10.074;2023-04-03T18:30:00;8.10;42.10